Halden, Minnesota
Current Conditions -  °F | °C
As of 5:57 AM on Thursday 27 Nov 2014 (Local Time) from KCOQ Reporting Station
Clear Clear  
Wind Chill: -23°   Ceiling: Unl
Heat Index: -8°   Visibility: 10mi
Dew Point: -13°   Wind: 8mph
Humidity: 77%   Direction: 300°WNW
Pressure: 30.42"   Gusts: NA
Location:  46.9584°N, 92.9445°W
Report Text: KCOQ 271157Z AUTO 30007KT 10SM CLR M22/M25 A3042 RMK AO2
Loading
Personal Weather Stations






























Interactive Weather Map New forecast layout! Learn more

10-Day Weather Forecast

Advertisements
Track Severe Weather on mobile